createdAt,value
2022-08-30T00:00:48.914Z,21.95
2022-08-30T00:02:48.968Z,21.96
2022-08-30T00:03:48.991Z,21.97
2022-08-30T00:05:48.920Z,21.87
2022-08-30T00:06:48.902Z,21.78
2022-08-30T00:07:48.914Z,21.71
2022-08-30T00:08:48.931Z,21.72
2022-08-30T00:09:48.922Z,21.75
2022-08-30T00:10:48.944Z,21.79
2022-08-30T00:11:48.929Z,21.84
2022-08-30T00:12:48.921Z,21.87
2022-08-30T00:13:48.911Z,21.90
2022-08-30T00:14:48.924Z,21.91
2022-08-30T00:15:49.002Z,21.92
2022-08-30T00:16:48.940Z,21.93
2022-08-30T00:17:48.925Z,21.94
2022-08-30T00:19:48.950Z,21.95
2022-08-30T00:21:48.964Z,21.94
2022-08-30T00:23:48.962Z,21.93
2022-08-30T00:24:48.952Z,21.91
2022-08-30T00:25:48.959Z,21.77
2022-08-30T00:26:48.963Z,21.66
2022-08-30T00:27:48.963Z,21.59
2022-08-30T00:28:48.973Z,21.58
2022-08-30T00:29:48.987Z,21.56
2022-08-30T00:30:49.023Z,21.54
2022-08-30T00:31:49.029Z,21.49
2022-08-30T00:32:48.975Z,21.50
2022-08-30T00:33:48.962Z,21.54
2022-08-30T00:35:48.985Z,21.45
2022-08-30T00:37:49.009Z,21.40
2022-08-30T00:38:48.994Z,21.37
2022-08-30T00:39:48.997Z,21.38
2022-08-30T00:40:49.035Z,21.40
2022-08-30T00:41:49.005Z,21.39
2022-08-30T00:42:50.638Z,21.41
2022-08-30T00:43:48.998Z,21.46
2022-08-30T00:44:49.006Z,21.47
2022-08-30T00:45:49.043Z,21.48
2022-08-30T00:46:49.014Z,21.49
2022-08-30T00:49:49.035Z,21.39
2022-08-30T00:50:49.042Z,21.23
2022-08-30T00:51:49.024Z,21.16
2022-08-30T00:52:49.025Z,21.14
2022-08-30T00:53:49.039Z,21.18
2022-08-30T00:54:49.046Z,21.21
2022-08-30T00:55:49.072Z,21.22
2022-08-30T00:56:49.035Z,21.15
2022-08-30T00:57:49.036Z,21.17
2022-08-30T00:58:49.032Z,21.13
2022-08-30T01:00:49.051Z,21.16
2022-08-30T01:01:49.108Z,21.13
2022-08-30T01:02:49.105Z,20.97
2022-08-30T01:03:49.060Z,20.91
2022-08-30T01:04:49.052Z,20.96
2022-08-30T01:05:49.066Z,20.98
2022-08-30T01:06:49.065Z,21.04
2022-08-30T01:07:49.087Z,21.10
2022-08-30T01:08:49.079Z,21.15
2022-08-30T01:09:49.073Z,21.19
2022-08-30T01:10:49.083Z,21.22
2022-08-30T01:11:49.094Z,21.24
2022-08-30T01:12:49.080Z,21.25
2022-08-30T01:13:49.089Z,21.26
2022-08-30T01:14:49.096Z,21.28
2022-08-30T01:16:49.118Z,21.27
2022-08-30T01:19:49.127Z,21.28
2022-08-30T01:21:49.127Z,21.27
2022-08-30T01:22:49.124Z,21.28
2022-08-30T01:24:49.107Z,21.27
2022-08-30T01:26:49.116Z,21.25
2022-08-30T01:27:49.125Z,21.24
2022-08-30T01:28:49.127Z,21.22
2022-08-30T01:29:49.132Z,21.20
2022-08-30T01:30:49.166Z,21.18
2022-08-30T01:31:49.254Z,21.17
2022-08-30T01:33:49.138Z,21.16
2022-08-30T01:34:49.134Z,21.14
2022-08-30T01:35:49.132Z,21.12
2022-08-30T01:36:49.143Z,21.11
2022-08-30T01:37:49.167Z,21.10
2022-08-30T01:38:49.164Z,21.09
2022-08-30T01:39:49.158Z,21.07
2022-08-30T01:40:49.148Z,21.06
2022-08-30T01:42:49.141Z,21.05
2022-08-30T01:44:49.155Z,21.04
2022-08-30T01:46:49.175Z,21.03
2022-08-30T01:47:49.161Z,21.05
2022-08-30T01:51:49.183Z,21.04
2022-08-30T01:53:49.168Z,21.02
2022-08-30T01:54:49.217Z,21.01
2022-08-30T01:56:49.216Z,20.99
2022-08-30T01:57:51.182Z,20.97
2022-08-30T01:59:49.237Z,20.95
2022-08-30T02:00:49.238Z,20.87
2022-08-30T02:01:49.274Z,20.84
2022-08-30T02:02:49.197Z,20.78
2022-08-30T02:03:49.303Z,20.69
2022-08-30T02:04:49.219Z,20.68
2022-08-30T02:05:49.230Z,20.71
2022-08-30T02:06:49.249Z,20.73
2022-08-30T02:07:49.232Z,20.75
2022-08-30T02:08:49.274Z,20.77
2022-08-30T02:09:49.220Z,20.78
2022-08-30T02:10:49.240Z,20.79
2022-08-30T02:11:49.228Z,20.78
2022-08-30T02:12:49.227Z,20.79
2022-08-30T02:13:49.231Z,20.78
2022-08-30T02:15:49.268Z,20.77
2022-08-30T02:16:49.286Z,20.76
2022-08-30T02:17:49.246Z,20.75
2022-08-30T02:18:49.235Z,20.74
2022-08-30T02:19:49.276Z,20.73
2022-08-30T02:22:49.636Z,20.74
2022-08-30T02:23:49.283Z,20.75
2022-08-30T02:24:49.287Z,20.77
2022-08-30T02:26:49.287Z,20.78
2022-08-30T02:27:49.270Z,20.80
2022-08-30T02:28:49.881Z,20.81
2022-08-30T02:29:49.274Z,20.83
2022-08-30T02:30:49.297Z,20.84
2022-08-30T02:31:49.275Z,20.86
2022-08-30T02:32:49.280Z,20.87
2022-08-30T02:33:49.300Z,20.86
2022-08-30T02:34:49.282Z,20.87
2022-08-30T02:35:49.289Z,20.90
2022-08-30T02:36:49.316Z,20.91
2022-08-30T02:38:49.330Z,20.90
2022-08-30T02:39:49.301Z,20.86
2022-08-30T02:40:49.313Z,20.84
2022-08-30T02:43:49.314Z,20.83
2022-08-30T02:44:49.320Z,20.82
2022-08-30T02:45:49.456Z,20.80
2022-08-30T02:46:49.325Z,20.79
2022-08-30T02:47:49.311Z,20.77
2022-08-30T02:48:49.337Z,20.75
2022-08-30T02:49:49.336Z,20.73
2022-08-30T02:50:49.328Z,20.72
2022-08-30T02:52:49.329Z,20.73
2022-08-30T02:53:49.374Z,20.74
2022-08-30T02:55:49.352Z,20.73
2022-08-30T02:56:49.348Z,20.70
2022-08-30T02:57:49.358Z,20.68
2022-08-30T02:58:49.377Z,20.66
2022-08-30T02:59:49.377Z,20.63
2022-08-30T03:00:49.400Z,20.62
2022-08-30T03:01:49.438Z,20.60
2022-08-30T03:02:49.384Z,20.59
2022-08-30T03:03:49.393Z,20.57
2022-08-30T03:05:49.365Z,20.58
2022-08-30T03:06:49.381Z,20.57
2022-08-30T03:07:49.370Z,20.56
2022-08-30T03:08:49.375Z,20.54
2022-08-30T03:09:49.383Z,20.53
2022-08-30T03:10:49.367Z,20.51
2022-08-30T03:11:49.378Z,20.50
2022-08-30T03:12:49.394Z,20.49
2022-08-30T03:14:49.401Z,20.48
2022-08-30T03:15:49.428Z,20.47
2022-08-30T03:16:49.482Z,20.46
2022-08-30T03:17:49.398Z,20.45
2022-08-30T03:18:49.393Z,20.44
2022-08-30T03:20:54.358Z,20.43
2022-08-30T03:21:49.425Z,20.41
2022-08-30T03:22:49.397Z,20.40
2022-08-30T03:23:49.422Z,20.38
2022-08-30T03:24:49.412Z,20.33
2022-08-30T03:25:49.430Z,20.31
2022-08-30T03:26:49.432Z,20.28
2022-08-30T03:27:49.409Z,20.26
2022-08-30T03:28:49.420Z,20.24
2022-08-30T03:30:49.442Z,20.23
2022-08-30T03:31:53.350Z,20.21
2022-08-30T03:32:49.445Z,20.18
2022-08-30T03:33:49.446Z,20.16
2022-08-30T03:34:49.429Z,20.15
2022-08-30T03:35:49.443Z,20.13
2022-08-30T03:36:49.450Z,20.12
2022-08-30T03:37:49.459Z,20.11
2022-08-30T03:38:49.462Z,20.09
2022-08-30T03:39:49.476Z,20.08
2022-08-30T03:40:49.463Z,20.06
2022-08-30T03:41:49.465Z,20.04
2022-08-30T03:42:49.458Z,20.01
2022-08-30T03:43:49.480Z,20.00
2022-08-30T03:44:49.463Z,19.98
2022-08-30T03:48:49.494Z,19.97
2022-08-30T03:51:49.477Z,19.96
2022-08-30T03:52:49.520Z,19.97
2022-08-30T03:59:49.519Z,19.96
2022-08-30T04:00:49.548Z,19.94
2022-08-30T04:01:49.512Z,19.93
2022-08-30T04:02:49.534Z,19.92
2022-08-30T04:03:49.516Z,19.90
2022-08-30T04:05:49.531Z,19.89
2022-08-30T04:06:49.527Z,19.88
2022-08-30T04:10:49.528Z,19.89
2022-08-30T04:12:49.936Z,19.90
2022-08-30T04:13:49.547Z,19.89
2022-08-30T04:15:49.554Z,19.90
2022-08-30T04:17:49.547Z,19.91
2022-08-30T04:20:49.574Z,19.92
2022-08-30T04:22:49.560Z,19.91
2022-08-30T04:23:49.589Z,19.92
2022-08-30T04:27:49.603Z,19.91
2022-08-30T04:28:49.595Z,19.90
2022-08-30T04:29:49.589Z,19.87
2022-08-30T04:30:49.591Z,19.86
2022-08-30T04:31:49.606Z,19.84
2022-08-30T04:35:49.625Z,19.83
2022-08-30T04:37:49.602Z,19.82
2022-08-30T04:38:49.604Z,19.81
2022-08-30T04:39:49.591Z,19.80
2022-08-30T04:40:49.642Z,19.79
2022-08-30T04:42:49.622Z,19.77
2022-08-30T04:43:49.621Z,19.76
2022-08-30T04:44:49.617Z,19.74
2022-08-30T04:46:49.630Z,19.73
2022-08-30T04:47:49.633Z,19.75
2022-08-30T04:48:49.638Z,19.78
2022-08-30T04:49:49.655Z,19.79
2022-08-30T04:50:49.634Z,19.80
2022-08-30T04:53:49.661Z,19.81
2022-08-30T04:55:49.657Z,19.82
2022-08-30T04:59:49.666Z,19.83
2022-08-30T05:00:49.733Z,19.84
2022-08-30T05:01:49.702Z,19.85
2022-08-30T05:03:49.691Z,19.86
2022-08-30T05:04:49.693Z,19.87
2022-08-30T05:05:49.673Z,19.88
2022-08-30T05:07:49.698Z,19.89
2022-08-30T05:08:49.677Z,19.90
2022-08-30T05:09:49.692Z,19.91
2022-08-30T05:10:49.684Z,19.93
2022-08-30T05:11:49.705Z,19.96
2022-08-30T05:12:49.708Z,19.98
2022-08-30T05:13:49.707Z,19.99
2022-08-30T05:15:49.800Z,20.01
2022-08-30T05:16:49.714Z,20.02
2022-08-30T05:17:49.753Z,20.06
2022-08-30T05:18:49.735Z,20.10
2022-08-30T05:19:49.739Z,20.13
2022-08-30T05:20:49.746Z,20.15
2022-08-30T05:21:49.708Z,20.17
2022-08-30T05:22:49.779Z,20.19
2022-08-30T05:23:49.722Z,20.20
2022-08-30T05:24:49.747Z,20.22
2022-08-30T05:25:49.753Z,20.23
2022-08-30T05:26:49.734Z,20.25
2022-08-30T05:27:49.780Z,20.27
2022-08-30T05:28:49.834Z,20.30
2022-08-30T05:29:49.778Z,20.33
2022-08-30T05:30:49.766Z,20.37
2022-08-30T05:31:49.831Z,20.39
2022-08-30T05:32:49.751Z,20.41
2022-08-30T05:33:49.754Z,20.42
2022-08-30T05:34:49.759Z,20.44
2022-08-30T05:36:49.773Z,20.45
2022-08-30T05:37:49.783Z,20.46
2022-08-30T05:38:49.754Z,20.48
2022-08-30T05:39:51.120Z,20.50
2022-08-30T05:40:49.783Z,20.52
2022-08-30T05:41:49.775Z,20.54
2022-08-30T05:42:49.786Z,20.57
2022-08-30T05:43:49.808Z,20.59
2022-08-30T05:44:49.787Z,20.63
2022-08-30T05:45:49.785Z,20.65
2022-08-30T05:46:49.790Z,20.68
2022-08-30T05:47:49.798Z,20.73
2022-08-30T05:48:49.817Z,20.74
2022-08-30T05:49:49.792Z,20.77
2022-08-30T05:50:49.805Z,20.78
2022-08-30T05:51:49.801Z,20.79
2022-08-30T05:52:49.819Z,20.81
2022-08-30T05:53:49.811Z,20.83
2022-08-30T05:54:49.815Z,20.86
2022-08-30T05:55:49.834Z,20.89
2022-08-30T05:56:49.815Z,20.92
2022-08-30T05:57:49.820Z,20.96
2022-08-30T05:58:49.824Z,21.01
2022-08-30T05:59:49.825Z,21.04
2022-08-30T06:00:49.839Z,21.08
2022-08-30T06:01:49.897Z,21.14
2022-08-30T06:02:49.873Z,21.20
2022-08-30T06:03:49.832Z,21.28
2022-08-30T06:04:49.832Z,21.36
2022-08-30T06:05:49.850Z,21.41
2022-08-30T06:06:49.852Z,21.47
2022-08-30T06:07:49.861Z,21.50
2022-08-30T06:08:49.842Z,21.55
2022-08-30T06:09:49.855Z,21.61
2022-08-30T06:10:49.845Z,21.66
2022-08-30T06:11:49.845Z,21.72
2022-08-30T06:12:49.851Z,21.78
2022-08-30T06:13:49.864Z,21.84
2022-08-30T06:14:49.875Z,21.91
2022-08-30T06:15:49.971Z,21.98
2022-08-30T06:16:49.876Z,22.07
2022-08-30T06:17:49.870Z,22.14
2022-08-30T06:18:49.876Z,22.21
2022-08-30T06:19:49.883Z,22.28
2022-08-30T06:20:50.835Z,22.36
2022-08-30T06:21:49.906Z,22.42
2022-08-30T06:22:49.882Z,22.48
2022-08-30T06:23:49.894Z,22.53
2022-08-30T06:24:57.808Z,22.57
2022-08-30T06:25:49.878Z,22.61
2022-08-30T06:26:49.906Z,22.66
2022-08-30T06:27:54.491Z,22.68
2022-08-30T06:28:49.890Z,22.73
2022-08-30T06:29:49.913Z,22.78
2022-08-30T06:30:49.893Z,22.83
2022-08-30T06:31:49.954Z,22.89
2022-08-30T06:32:49.904Z,22.96
2022-08-30T06:33:49.935Z,23.03
2022-08-30T06:34:49.915Z,23.07
2022-08-30T06:35:58.404Z,23.08
2022-08-30T06:36:49.910Z,23.11
2022-08-30T06:37:49.936Z,23.15
2022-08-30T06:38:49.924Z,23.14
2022-08-30T06:39:49.927Z,23.12
2022-08-30T06:40:49.919Z,23.09
2022-08-30T06:41:49.939Z,23.10
2022-08-30T06:42:49.924Z,23.11
2022-08-30T06:43:49.953Z,23.16
2022-08-30T06:44:49.946Z,23.23
2022-08-30T06:45:49.958Z,23.31
2022-08-30T06:46:50.115Z,23.38
2022-08-30T06:47:49.998Z,23.42
2022-08-30T06:48:49.942Z,23.48
2022-08-30T06:49:49.940Z,23.52
2022-08-30T06:50:49.953Z,23.57
2022-08-30T06:51:49.985Z,23.60
2022-08-30T06:52:49.963Z,23.61
2022-08-30T06:53:49.983Z,23.62
2022-08-30T06:54:49.963Z,23.69
2022-08-30T06:55:49.980Z,23.75
2022-08-30T06:56:58.118Z,23.83
2022-08-30T06:57:49.981Z,23.91
2022-08-30T06:58:49.973Z,24.01
2022-08-30T06:59:53.079Z,24.10
2022-08-30T07:00:50.005Z,24.20
2022-08-30T07:01:50.077Z,24.32
2022-08-30T07:02:50.087Z,24.43
2022-08-30T07:03:50.004Z,24.54
2022-08-30T07:04:49.987Z,24.65
2022-08-30T07:05:50.000Z,24.74
2022-08-30T07:06:49.986Z,24.83
2022-08-30T07:07:50.007Z,24.93
2022-08-30T07:08:49.993Z,25.02
2022-08-30T07:09:50.005Z,25.07
2022-08-30T07:10:50.015Z,25.12
2022-08-30T07:11:49.999Z,25.21
2022-08-30T07:12:50.019Z,25.31
2022-08-30T07:13:50.031Z,25.43
2022-08-30T07:14:50.015Z,25.52
2022-08-30T07:15:50.094Z,25.62
2022-08-30T07:16:50.869Z,25.71
2022-08-30T07:17:50.024Z,25.84
2022-08-30T07:18:51.305Z,25.98
2022-08-30T07:19:50.012Z,26.08
2022-08-30T07:20:50.025Z,26.17
2022-08-30T07:21:50.045Z,26.12
2022-08-30T07:22:50.046Z,26.09
2022-08-30T07:23:53.178Z,26.08
2022-08-30T07:24:50.047Z,26.12
2022-08-30T07:25:50.072Z,26.01
2022-08-30T07:26:50.069Z,25.97
2022-08-30T07:27:50.062Z,26.03
2022-08-30T07:28:55.675Z,26.16
2022-08-30T07:29:50.094Z,26.30
2022-08-30T07:30:50.067Z,26.19
2022-08-30T07:31:50.077Z,26.16
2022-08-30T07:32:50.079Z,26.14
2022-08-30T07:33:50.073Z,26.23
2022-08-30T07:34:51.755Z,26.10
2022-08-30T07:35:50.065Z,26.08
2022-08-30T07:36:50.075Z,26.11
2022-08-30T07:37:50.068Z,26.25
2022-08-30T07:38:50.085Z,26.45
2022-08-30T07:39:50.105Z,26.67
2022-08-30T07:40:50.087Z,26.68
2022-08-30T07:41:50.079Z,26.69
2022-08-30T07:42:50.095Z,26.79
2022-08-30T07:43:50.086Z,26.93
2022-08-30T07:44:53.629Z,27.07
2022-08-30T07:45:50.089Z,27.20
2022-08-30T07:46:50.135Z,27.34
2022-08-30T07:47:50.096Z,27.25
2022-08-30T07:48:50.110Z,27.35
2022-08-30T07:49:50.125Z,27.52
2022-08-30T07:50:52.617Z,27.66
2022-08-30T07:51:50.126Z,27.82
2022-08-30T07:52:50.126Z,27.99
2022-08-30T07:53:50.133Z,28.19
2022-08-30T07:54:52.744Z,28.37
2022-08-30T07:55:50.130Z,28.54
2022-08-30T07:56:50.134Z,28.66
2022-08-30T07:57:50.156Z,28.80
2022-08-30T07:58:50.148Z,28.94
2022-08-30T07:59:50.117Z,29.10
2022-08-30T08:00:50.141Z,29.29
2022-08-30T08:01:50.187Z,29.49
2022-08-30T08:02:50.183Z,29.69
2022-08-30T08:03:50.145Z,29.88
2022-08-30T08:04:50.153Z,30.08
2022-08-30T08:05:50.378Z,30.27
2022-08-30T08:06:50.151Z,30.48
2022-08-30T08:07:50.161Z,30.67
2022-08-30T08:08:50.169Z,30.65
2022-08-30T08:09:50.175Z,30.69
2022-08-30T08:10:50.180Z,30.79
2022-08-30T08:11:50.163Z,30.84
2022-08-30T08:12:50.186Z,30.93
2022-08-30T08:13:53.916Z,31.04
2022-08-30T08:14:50.170Z,31.11
2022-08-30T08:15:50.240Z,31.16
2022-08-30T08:16:50.198Z,31.24
2022-08-30T08:17:50.185Z,31.35
2022-08-30T08:18:50.198Z,31.47
2022-08-30T08:19:50.230Z,31.61
2022-08-30T08:20:50.207Z,31.76
2022-08-30T08:21:59.404Z,31.88
2022-08-30T08:22:50.202Z,32.00
2022-08-30T08:23:50.186Z,32.10
2022-08-30T08:24:50.209Z,32.19
2022-08-30T08:25:50.198Z,32.27
2022-08-30T08:26:50.271Z,32.37
2022-08-30T08:27:50.218Z,32.47
2022-08-30T08:28:50.215Z,32.58
2022-08-30T08:29:50.211Z,32.68
2022-08-30T08:30:50.267Z,32.79
2022-08-30T08:31:50.261Z,32.90
2022-08-30T08:32:50.221Z,32.97
2022-08-30T08:33:50.253Z,33.05
2022-08-30T08:34:50.239Z,33.15
2022-08-30T08:35:50.256Z,33.22
2022-08-30T08:36:50.235Z,33.25
2022-08-30T08:37:50.249Z,33.27
2022-08-30T08:39:50.255Z,33.14
2022-08-30T08:40:50.247Z,33.12
2022-08-30T08:41:50.245Z,33.19
2022-08-30T08:42:50.254Z,33.29
2022-08-30T08:43:50.260Z,33.41
2022-08-30T08:44:50.298Z,33.50
2022-08-30T08:45:50.273Z,33.42
2022-08-30T08:46:50.261Z,33.05
2022-08-30T08:47:50.658Z,32.62
2022-08-30T08:48:59.940Z,32.51
2022-08-30T08:49:50.293Z,32.46
2022-08-30T08:50:50.288Z,32.47
2022-08-30T08:51:50.274Z,32.52
2022-08-30T08:52:50.286Z,32.63
2022-08-30T08:53:50.291Z,32.74
2022-08-30T08:54:50.296Z,32.85
2022-08-30T08:55:50.281Z,32.95
2022-08-30T08:56:50.283Z,33.00
2022-08-30T08:58:50.304Z,32.95
2022-08-30T08:59:50.312Z,32.89
2022-08-30T09:00:50.293Z,32.82
2022-08-30T09:01:50.407Z,32.74
2022-08-30T09:02:53.938Z,32.64
2022-08-30T09:03:50.302Z,32.56
2022-08-30T09:04:50.371Z,32.48
2022-08-30T09:05:50.325Z,32.38
2022-08-30T09:06:50.323Z,32.26
2022-08-30T09:07:50.318Z,32.17
2022-08-30T09:08:50.337Z,32.08
2022-08-30T09:09:50.314Z,31.96
2022-08-30T09:10:51.148Z,31.88
2022-08-30T09:11:50.330Z,31.79
2022-08-30T09:12:50.569Z,31.69
2022-08-30T09:13:50.333Z,31.62
2022-08-30T09:14:50.345Z,31.57
2022-08-30T09:15:54.806Z,31.55
2022-08-30T09:16:50.342Z,31.59
2022-08-30T09:17:50.358Z,31.64
2022-08-30T09:18:54.722Z,31.69
2022-08-30T09:19:50.341Z,31.78
2022-08-30T09:20:50.361Z,31.89
2022-08-30T09:21:50.374Z,32.00
2022-08-30T09:22:50.352Z,32.14
2022-08-30T09:23:50.362Z,32.27
2022-08-30T09:24:50.376Z,32.41
2022-08-30T09:25:50.359Z,32.56
2022-08-30T09:26:50.366Z,32.68
2022-08-30T09:27:50.365Z,32.79
2022-08-30T09:28:50.384Z,32.93
2022-08-30T09:29:50.376Z,33.07
2022-08-30T09:30:50.444Z,33.20
2022-08-30T09:31:52.973Z,33.38
2022-08-30T09:32:50.393Z,33.56
2022-08-30T09:33:50.410Z,33.73
2022-08-30T09:34:50.398Z,33.86
2022-08-30T09:35:50.368Z,33.99
2022-08-30T09:36:50.397Z,34.11
2022-08-30T09:37:50.401Z,34.22
2022-08-30T09:38:50.407Z,34.27
2022-08-30T09:40:50.412Z,34.22
2022-08-30T09:41:50.411Z,34.13
2022-08-30T09:42:50.406Z,34.01
2022-08-30T09:43:50.404Z,33.84
2022-08-30T09:44:50.426Z,33.68
2022-08-30T09:45:50.474Z,33.54
2022-08-30T09:46:50.863Z,33.45
2022-08-30T09:47:50.438Z,33.40
2022-08-30T09:48:50.440Z,33.37
2022-08-30T09:50:50.444Z,33.41
2022-08-30T09:51:50.432Z,33.47
2022-08-30T09:52:55.031Z,33.49
2022-08-30T09:54:07.355Z,33.54
2022-08-30T09:54:50.458Z,33.61
2022-08-30T09:55:50.450Z,33.67
2022-08-30T09:56:50.468Z,33.71
2022-08-30T09:57:50.441Z,33.76
2022-08-30T09:58:50.448Z,33.77
2022-08-30T09:59:50.440Z,33.83
2022-08-30T10:00:50.897Z,33.89
2022-08-30T10:01:50.473Z,33.97
2022-08-30T10:02:50.470Z,34.06
2022-08-30T10:03:50.467Z,34.11
2022-08-30T10:04:50.453Z,34.09
2022-08-30T10:05:50.464Z,34.05
2022-08-30T10:06:50.473Z,34.03
2022-08-30T10:07:50.456Z,34.02
2022-08-30T10:08:50.480Z,34.00
2022-08-30T10:09:50.493Z,34.01
2022-08-30T10:10:50.496Z,33.99
2022-08-30T10:11:50.478Z,33.92
2022-08-30T10:12:50.492Z,33.85
2022-08-30T10:13:50.481Z,33.82
2022-08-30T10:14:50.476Z,33.73
2022-08-30T10:15:50.497Z,33.66
2022-08-30T10:16:50.531Z,33.63
2022-08-30T10:17:50.495Z,33.60
2022-08-30T10:18:50.491Z,33.55
2022-08-30T10:19:50.507Z,33.48
2022-08-30T10:20:50.504Z,33.43
2022-08-30T10:21:50.502Z,33.34
2022-08-30T10:22:50.513Z,33.26
2022-08-30T10:23:50.499Z,33.18
2022-08-30T10:24:50.524Z,33.13
2022-08-30T10:25:50.532Z,33.09
2022-08-30T10:26:50.513Z,33.00
2022-08-30T10:27:50.510Z,32.94
2022-08-30T10:28:50.535Z,32.87
2022-08-30T10:29:50.516Z,32.77
2022-08-30T10:30:50.576Z,32.64
2022-08-30T10:31:50.517Z,32.35
2022-08-30T10:32:50.526Z,32.01
2022-08-30T10:33:50.530Z,31.73
2022-08-30T10:34:50.546Z,31.35
2022-08-30T10:35:50.537Z,31.21
2022-08-30T10:36:50.540Z,31.25
2022-08-30T10:37:51.463Z,31.34
2022-08-30T10:38:50.550Z,31.40
2022-08-30T10:39:50.563Z,31.45
2022-08-30T10:40:50.632Z,31.47
2022-08-30T10:41:50.567Z,31.44
2022-08-30T10:42:50.577Z,31.40
2022-08-30T10:43:50.932Z,31.38
2022-08-30T10:45:50.605Z,31.32
2022-08-30T10:46:50.589Z,31.26
2022-08-30T10:47:50.585Z,31.24
2022-08-30T10:48:50.584Z,31.23
2022-08-30T10:49:50.580Z,31.21
2022-08-30T10:50:50.605Z,31.25
2022-08-30T10:51:50.584Z,31.31
2022-08-30T10:52:50.579Z,31.37
2022-08-30T10:53:50.594Z,31.46
2022-08-30T10:54:50.595Z,31.55
2022-08-30T10:55:50.601Z,31.60
2022-08-30T10:56:50.609Z,31.63
2022-08-30T10:57:50.645Z,31.65
2022-08-30T10:58:50.595Z,31.64
2022-08-30T10:59:50.623Z,31.66
2022-08-30T11:00:50.678Z,31.64
2022-08-30T11:02:50.634Z,31.61
2022-08-30T11:03:50.622Z,31.55
2022-08-30T11:04:50.638Z,31.48
2022-08-30T11:05:50.617Z,31.38
2022-08-30T11:06:53.984Z,31.00
2022-08-30T11:07:52.115Z,30.73
2022-08-30T11:08:50.647Z,30.66
2022-08-30T11:10:50.672Z,30.41
2022-08-30T11:11:50.650Z,30.43
2022-08-30T11:12:50.654Z,30.49
2022-08-30T11:13:54.613Z,30.56
2022-08-30T11:14:50.643Z,30.57
2022-08-30T11:15:50.644Z,30.51
2022-08-30T11:16:50.634Z,30.50
2022-08-30T11:17:50.651Z,30.43
2022-08-30T11:18:51.984Z,30.40
2022-08-30T11:19:50.658Z,30.35
2022-08-30T11:20:50.663Z,30.21
2022-08-30T11:21:50.886Z,30.23
2022-08-30T11:22:50.671Z,30.19
2022-08-30T11:23:50.675Z,29.86
2022-08-30T11:24:50.680Z,29.76
2022-08-30T11:25:53.533Z,29.81
2022-08-30T11:26:50.712Z,29.89
2022-08-30T11:27:51.492Z,29.97
2022-08-30T11:28:50.679Z,30.07
2022-08-30T11:29:50.678Z,30.06
2022-08-30T11:30:50.694Z,29.93
2022-08-30T11:31:50.704Z,29.94
2022-08-30T11:32:50.713Z,29.96
2022-08-30T11:33:50.713Z,29.85
2022-08-30T11:34:50.696Z,29.81
2022-08-30T11:35:50.707Z,29.85
2022-08-30T11:36:50.714Z,29.91
2022-08-30T11:37:50.780Z,29.99
2022-08-30T11:38:50.730Z,29.81
2022-08-30T11:39:50.704Z,29.77
2022-08-30T11:40:50.714Z,29.63
2022-08-30T11:41:50.713Z,29.58
2022-08-30T11:42:50.731Z,29.62
2022-08-30T11:43:50.725Z,29.67
2022-08-30T11:44:50.722Z,29.76
2022-08-30T11:45:50.805Z,29.87
2022-08-30T11:46:50.731Z,29.83
2022-08-30T11:47:50.753Z,29.94
2022-08-30T11:48:54.243Z,30.05
2022-08-30T11:49:50.729Z,30.17
2022-08-30T11:50:50.734Z,30.27
2022-08-30T11:51:58.113Z,30.30
2022-08-30T11:52:50.749Z,30.00
2022-08-30T11:53:50.747Z,29.99
2022-08-30T11:54:53.085Z,30.06
2022-08-30T11:55:50.750Z,30.17
2022-08-30T11:56:50.773Z,30.30
2022-08-30T11:57:50.758Z,30.41
2022-08-30T11:58:50.885Z,30.43
2022-08-30T11:59:50.778Z,30.40
2022-08-30T12:00:52.970Z,30.48
2022-08-30T12:01:52.149Z,30.55
2022-08-30T12:02:50.877Z,30.62
2022-08-30T12:03:50.769Z,30.69
2022-08-30T12:04:50.782Z,30.78
2022-08-30T12:05:51.191Z,30.87
2022-08-30T12:06:50.802Z,30.96
2022-08-30T12:07:50.798Z,31.00
2022-08-30T12:09:50.784Z,30.98
2022-08-30T12:10:50.793Z,30.96
2022-08-30T12:12:50.878Z,31.00
2022-08-30T12:13:50.838Z,31.10
2022-08-30T12:14:50.823Z,31.18
2022-08-30T12:15:50.807Z,31.24
2022-08-30T12:16:50.870Z,31.32
2022-08-30T12:17:51.032Z,31.41
2022-08-30T12:18:51.987Z,31.50
2022-08-30T12:19:50.824Z,31.58
2022-08-30T12:20:50.855Z,31.65
2022-08-30T12:21:50.832Z,31.67
2022-08-30T12:22:50.891Z,31.65
2022-08-30T12:23:50.831Z,31.66
2022-08-30T12:24:50.846Z,31.68
2022-08-30T12:25:50.833Z,31.73
2022-08-30T12:26:50.835Z,31.80
2022-08-30T12:27:50.878Z,31.84
2022-08-30T12:28:50.899Z,31.90
2022-08-30T12:29:50.851Z,31.97
2022-08-30T12:30:50.867Z,32.02
2022-08-30T12:31:50.967Z,32.01
2022-08-30T12:32:51.008Z,32.00
2022-08-30T12:33:51.744Z,31.97
2022-08-30T12:34:50.863Z,31.95
2022-08-30T12:35:50.880Z,31.96
2022-08-30T12:36:50.860Z,31.98
2022-08-30T12:37:50.864Z,31.95
2022-08-30T12:38:50.915Z,31.93
2022-08-30T12:40:50.885Z,31.95
2022-08-30T12:41:50.897Z,31.96
2022-08-30T12:43:50.892Z,31.97
2022-08-30T12:44:50.884Z,31.96
2022-08-30T12:45:51.302Z,31.97
2022-08-30T12:46:50.883Z,31.96
2022-08-30T12:47:50.905Z,31.91
2022-08-30T12:48:50.904Z,31.88
2022-08-30T12:54:50.923Z,31.84
2022-08-30T12:55:50.905Z,31.82
2022-08-30T12:56:50.900Z,31.66
2022-08-30T12:57:50.934Z,31.63
2022-08-30T12:58:50.932Z,31.61
2022-08-30T12:59:56.734Z,31.58
2022-08-30T13:00:51.035Z,31.54
2022-08-30T13:02:50.934Z,31.56
2022-08-30T13:03:50.942Z,31.59
2022-08-30T13:04:50.991Z,31.63
2022-08-30T13:05:53.019Z,31.67
2022-08-30T13:06:50.960Z,31.73
2022-08-30T13:07:50.935Z,31.77
2022-08-30T13:08:50.957Z,31.81
2022-08-30T13:09:50.976Z,31.83
2022-08-30T13:10:50.952Z,31.85
2022-08-30T13:12:50.967Z,31.87
2022-08-30T13:13:52.305Z,31.88
2022-08-30T13:14:52.507Z,31.80
2022-08-30T13:15:50.970Z,31.72
2022-08-30T13:16:51.031Z,31.64
2022-08-30T13:17:50.971Z,31.58
2022-08-30T13:18:50.972Z,31.55
2022-08-30T13:19:50.974Z,31.51
2022-08-30T13:20:50.977Z,31.47
2022-08-30T13:21:50.998Z,31.48
2022-08-30T13:22:50.986Z,31.47
2022-08-30T13:23:51.016Z,31.45
2022-08-30T13:24:51.019Z,31.44
2022-08-30T13:25:50.984Z,31.45
2022-08-30T13:26:51.008Z,31.48
2022-08-30T13:27:51.011Z,31.49
2022-08-30T13:28:50.995Z,31.50
2022-08-30T13:29:51.006Z,31.52
2022-08-30T13:30:51.000Z,31.45
2022-08-30T13:31:51.140Z,31.36
2022-08-30T13:32:51.018Z,31.30
2022-08-30T13:33:51.023Z,31.24
2022-08-30T13:34:51.016Z,31.17
2022-08-30T13:35:51.019Z,31.13
2022-08-30T13:36:51.008Z,31.09
2022-08-30T13:37:51.848Z,31.05
2022-08-30T13:38:51.030Z,31.03
2022-08-30T13:39:51.126Z,31.01
2022-08-30T13:40:51.073Z,31.03
2022-08-30T13:41:51.630Z,31.08
2022-08-30T13:42:51.044Z,31.11
2022-08-30T13:44:13.563Z,31.13
2022-08-30T13:45:51.103Z,31.10
2022-08-30T13:46:54.121Z,31.09
2022-08-30T13:47:51.075Z,31.10
2022-08-30T13:48:51.054Z,31.06
2022-08-30T13:49:51.060Z,31.07
2022-08-30T13:50:51.089Z,31.08
2022-08-30T13:52:18.417Z,31.09
2022-08-30T13:52:51.116Z,31.14
2022-08-30T13:53:53.288Z,31.17
2022-08-30T13:54:51.190Z,31.22
2022-08-30T13:55:51.071Z,31.27
2022-08-30T13:56:51.071Z,31.29
2022-08-30T13:57:55.213Z,31.23
2022-08-30T13:58:51.084Z,31.13
2022-08-30T13:59:51.119Z,31.05
2022-08-30T14:00:53.805Z,30.98
2022-08-30T14:02:54.559Z,30.99
2022-08-30T14:04:13.989Z,30.88
2022-08-30T14:04:51.194Z,30.79
2022-08-30T14:06:05.221Z,30.74
2022-08-30T14:07:19.901Z,30.61
2022-08-30T14:07:51.833Z,30.51
2022-08-30T14:08:54.752Z,30.52
2022-08-30T14:09:52.817Z,30.58
2022-08-30T14:10:51.125Z,30.67
2022-08-30T14:11:51.138Z,30.75
2022-08-30T14:12:52.689Z,30.81
2022-08-30T14:14:18.681Z,30.86
2022-08-30T14:14:51.126Z,30.89
2022-08-30T14:16:26.490Z,30.92
2022-08-30T14:17:51.153Z,30.95
2022-08-30T14:18:51.160Z,30.97
2022-08-30T14:19:51.134Z,30.96
2022-08-30T14:21:51.130Z,30.92
2022-08-30T14:22:51.142Z,30.82
2022-08-30T14:23:51.151Z,30.68
2022-08-30T14:24:51.147Z,30.67
2022-08-30T14:25:51.156Z,30.65
2022-08-30T14:26:51.150Z,30.60
2022-08-30T14:27:51.171Z,30.53
2022-08-30T14:28:51.803Z,30.47
2022-08-30T14:29:51.167Z,30.43
2022-08-30T14:30:51.166Z,30.44
2022-08-30T14:31:51.275Z,30.24
2022-08-30T14:32:51.179Z,30.16
2022-08-30T14:33:51.173Z,30.19